Time;durP1;ratioP1;P1;durP2;ratioP2;P2;SDS_P1;SDS_P2;PMS_P1;PMS_P2;Temp;Humidity;BMP_temperature;BMP_pressure;BME280_temperature;BME280_humidity;BME280_pressure;Samples;Min_cycle;Max_cycle;Signal;HPM_P1;HPM_P2
2022/04/21 00:02:35;;;;;;;2.60;1.35;;;10.90;1.00;;;;;;10364947;28;92999;-50
2022/04/21 00:07:36;;;;;;;1.83;1.30;;;10.90;99.90;;;;;;10364534;28;85070;-49
2022/04/21 00:12:37;;;;;;;2.58;1.40;;;10.90;99.90;;;;;;10347100;28;87676;-49
2022/04/21 00:17:37;;;;;;;2.40;1.15;;;10.90;99.90;;;;;;10363951;28;84132;-49
2022/04/21 00:27:58;;;;;;;1.90;1.25;;;10.70;1.00;;;;;;10322663;28;84814;-52
2022/04/21 00:32:59;;;;;;;2.40;1.30;;;10.70;1.00;;;;;;10327473;28;85137;-49
2022/04/21 00:37:59;;;;;;;1.90;1.20;;;10.70;1.00;;;;;;10371296;28;84261;-51
2022/04/21 00:43:01;;;;;;;2.22;1.40;;;10.70;1.00;;;;;;10372249;28;84081;-50
2022/04/21 00:48:03;;;;;;;1.65;1.10;;;10.70;1.00;;;;;;10371215;28;84311;-48
2022/04/21 00:53:07;;;;;;;1.60;1.00;;;10.60;1.00;;;;;;10370722;28;86711;-50
2022/04/21 00:58:08;;;;;;;3.90;1.60;;;10.60;1.00;;;;;;10370792;28;84312;-48
2022/04/21 01:03:12;;;;;;;2.85;1.58;;;10.60;13.50;;;;;;10370768;28;84990;-50
2022/04/21 01:08:13;;;;;;;1.52;1.17;;;10.50;99.90;;;;;;10370609;28;84753;-48
2022/04/21 01:13:13;;;;;;;2.45;1.67;;;10.50;1.00;;;;;;10370382;28;83993;-48
2022/04/21 01:18:14;;;;;;;2.33;1.10;;;10.50;1.00;;;;;;10370421;28;84898;-49
2022/04/21 01:23:15;;;;;;;2.38;1.40;;;10.40;99.90;;;;;;10371948;28;84778;-49
2022/04/21 01:28:16;;;;;;;1.83;1.05;;;10.30;1.00;;;;;;10370857;28;83968;-50
2022/04/21 01:33:16;;;;;;;1.75;0.98;;;10.20;23.70;;;;;;10370009;28;84125;-53
2022/04/21 01:43:37;;;;;;;1.67;1.30;;;10.20;99.90;;;;;;10368619;28;85230;-49
2022/04/21 01:48:38;;;;;;;3.00;1.35;;;10.10;1.00;;;;;;10369089;28;84883;-48
2022/04/21 01:53:39;;;;;;;1.67;1.10;;;10.00;99.90;;;;;;10368618;28;84907;-49
2022/04/21 01:58:40;;;;;;;1.50;1.00;;;10.00;1.00;;;;;;10350775;28;85007;-51
2022/04/21 02:03:41;;;;;;;3.25;1.20;;;10.00;23.50;;;;;;10368318;28;85051;-50
2022/04/21 02:08:42;;;;;;;2.75;1.23;;;9.90;99.90;;;;;;10367838;28;84796;-48
2022/04/21 02:13:43;;;;;;;4.85;1.42;;;9.80;1.00;;;;;;10367973;28;84280;-52
2022/04/21 02:18:43;;;;;;;3.35;1.30;;;9.80;1.00;;;;;;10367818;28;85766;-47
2022/04/21 02:23:44;;;;;;;2.65;1.35;;;9.80;1.00;;;;;;10367828;28;84968;-49
2022/04/21 02:28:45;;;;;;;1.70;1.10;;;9.80;1.00;;;;;;10367649;28;84264;-49
2022/04/21 02:33:45;;;;;;;1.42;1.23;;;9.70;1.00;;;;;;10395549;22;84807;-55
2022/04/21 02:38:46;;;;;;;2.28;1.30;;;9.60;1.00;;;;;;10436225;28;84088;-57
2022/04/21 02:43:46;;;;;;;3.35;1.33;;;9.60;1.00;;;;;;10437796;28;93799;-53
2022/04/21 02:48:47;;;;;;;2.63;1.40;;;9.50;1.00;;;;;;10438061;28;85295;-51
2022/04/21 02:59:07;;;;;;;1.88;1.30;;;9.30;99.90;;;;;;10436193;28;84147;-56
2022/04/21 03:04:08;;;;;;;1.90;1.60;;;9.30;99.90;;;;;;10419120;28;86914;-56
2022/04/21 03:09:08;;;;;;;3.05;1.58;;;9.20;99.90;;;;;;10451489;28;84934;-50
2022/04/21 03:14:09;;;;;;;2.30;1.55;;;9.20;99.90;;;;;;10428157;28;85110;-54
2022/04/21 03:19:09;;;;;;;2.45;1.40;;;9.00;99.90;;;;;;10408522;28;84158;-55
2022/04/21 03:24:19;;;;;;;1.73;1.33;;;9.00;99.90;;;;;;10379026;28;86939;-55
2022/04/21 03:29:21;;;;;;;2.13;1.30;;;9.00;1.00;;;;;;10442532;28;84098;-54
2022/04/21 03:34:21;;;;;;;2.22;1.30;;;8.90;1.00;;;;;;10427315;28;84861;-55
2022/04/21 03:39:22;;;;;;;3.08;1.27;;;8.90;1.00;;;;;;10408800;28;84771;-54
2022/04/21 03:44:23;;;;;;;3.00;1.40;;;8.90;1.00;;;;;;10408153;28;84998;-57
2022/04/21 03:49:29;;;;;;;3.13;1.70;;;8.80;1.00;;;;;;10390201;28;85074;-50
2022/04/21 03:54:30;;;;;;;2.40;1.33;;;8.80;1.00;;;;;;10433344;28;84977;-51
2022/04/21 03:59:31;;;;;;;2.00;1.75;;;8.80;1.00;;;;;;10432629;28;90702;-52
2022/04/21 04:04:33;;;;;;;1.88;1.40;;;8.80;1.00;;;;;;10428347;28;85421;-52
2022/04/21 04:14:54;;;;;;;2.42;1.70;;;8.60;1.00;;;;;;10409371;28;84115;-50
2022/04/21 04:19:54;;;;;;;3.65;2.08;;;8.60;1.00;;;;;;10414435;28;84963;-53
2022/04/21 04:24:56;;;;;;;2.38;1.40;;;8.50;1.00;;;;;;10413969;28;84164;-55
2022/04/21 04:29:56;;;;;;;4.07;2.00;;;8.50;1.00;;;;;;10415521;28;84238;-49
2022/04/21 04:34:57;;;;;;;4.57;1.95;;;8.40;1.00;;;;;;10413159;28;84200;-48
2022/04/21 04:39:59;;;;;;;2.85;1.75;;;8.30;1.00;;;;;;10412739;28;91484;-53
2022/04/21 04:50:19;;;;;;;4.20;2.13;;;8.40;1.00;;;;;;10413330;28;84997;-53
2022/04/21 04:55:20;;;;;;;7.20;2.13;;;8.30;1.00;;;;;;10412593;28;84998;-52
2022/04/21 05:00:20;;;;;;;3.97;2.08;;;8.30;1.00;;;;;;10412713;28;84966;-49
2022/04/21 05:05:21;;;;;;;3.47;1.80;;;8.30;1.00;;;;;;10412055;28;85084;-53
2022/04/21 05:10:23;;;;;;;3.08;1.52;;;8.40;1.00;;;;;;10421442;28;84713;-55
2022/04/21 05:15:24;;;;;;;3.35;1.65;;;8.40;1.00;;;;;;10401454;28;84918;-52
2022/04/21 05:20:25;;;;;;;3.70;2.00;;;8.50;1.00;;;;;;10414114;28;84899;-55
2022/04/21 05:25:31;;;;;;;4.57;1.80;;;8.50;1.00;;;;;;10411801;28;85282;-54
2022/04/21 05:35:53;;;;;;;3.97;1.55;;;8.60;1.00;;;;;;10410826;28;84351;-53
2022/04/21 05:40:54;;;;;;;2.50;1.75;;;8.70;1.00;;;;;;10412314;28;84936;-54
2022/04/21 05:45:55;;;;;;;2.97;1.55;;;8.80;1.00;;;;;;10411144;28;84730;-49
2022/04/21 05:50:55;;;;;;;2.92;1.83;;;8.90;1.00;;;;;;10401124;28;84284;-53
2022/04/21 05:55:57;;;;;;;2.35;1.90;;;9.00;1.00;;;;;;10417808;27;85782;-52
2022/04/21 06:00:59;;;;;;;3.60;2.15;;;9.00;1.00;;;;;;10391462;28;86020;-51
2022/04/21 06:05:59;;;;;;;5.93;2.05;;;9.00;1.00;;;;;;10392600;28;86927;-54
2022/04/21 06:11:00;;;;;;;2.13;1.67;;;9.00;1.00;;;;;;10392839;28;84918;-50
2022/04/21 06:16:01;;;;;;;4.28;1.80;;;9.10;1.00;;;;;;10391060;28;85209;-55
2022/04/21 06:21:02;;;;;;;4.25;2.05;;;9.10;1.00;;;;;;10411110;28;88077;-52
2022/04/21 06:26:04;;;;;;;2.80;1.83;;;9.30;99.90;;;;;;10410372;28;85004;-53
2022/04/21 06:31:05;;;;;;;4.00;2.40;;;9.40;99.90;;;;;;10392116;28;86141;-54
2022/04/21 06:36:07;;;;;;;3.45;2.33;;;9.50;99.90;;;;;;10409053;28;93336;-56
2022/04/21 06:41:08;;;;;;;4.75;1.98;;;9.90;99.90;;;;;;10410146;28;84922;-57
2022/04/21 06:51:30;;;;;;;4.50;2.15;;;10.40;99.90;;;;;;10411260;28;85237;-53
2022/04/21 06:56:30;;;;;;;3.13;2.05;;;11.30;1.00;;;;;;10409899;28;84775;-54
2022/04/21 07:01:31;;;;;;;4.18;2.03;;;11.60;1.00;;;;;;10410237;28;84118;-59
2022/04/21 07:06:31;;;;;;;4.10;2.30;;;11.80;1.00;;;;;;10409096;28;84246;-54
2022/04/21 07:11:32;;;;;;;7.82;2.42;;;11.80;1.00;;;;;;10409954;28;89903;-56
2022/04/21 07:16:33;;;;;;;3.70;2.17;;;12.50;1.00;;;;;;10408687;28;85008;-54
2022/04/21 07:21:33;;;;;;;3.40;2.05;;;12.30;15.80;;;;;;10410394;28;84926;-52
2022/04/21 07:26:34;;;;;;;4.90;2.30;;;12.30;1.00;;;;;;10409832;28;88821;-49
2022/04/21 07:31:35;;;;;;;3.65;2.40;;;12.30;99.90;;;;;;10390842;28;87058;-57
2022/04/21 07:36:35;;;;;;;5.55;2.53;;;12.30;99.90;;;;;;10389889;28;87622;-57
2022/04/21 07:41:37;;;;;;;4.78;2.35;;;12.40;14.40;;;;;;10410625;28;84104;-55
2022/04/21 07:46:37;;;;;;;3.17;2.15;;;13.40;99.90;;;;;;10415333;28;84973;-58
2022/04/21 07:51:38;;;;;;;4.90;2.20;;;14.50;99.90;;;;;;10415992;28;84916;-54
2022/04/21 07:56:39;;;;;;;3.67;1.85;;;15.00;1.00;;;;;;10415136;28;84350;-54
2022/04/21 08:01:39;;;;;;;4.15;1.90;;;15.20;99.90;;;;;;10416093;28;84943;-54
2022/04/21 08:06:41;;;;;;;2.88;2.13;;;15.10;99.90;;;;;;10415312;28;84897;-54
2022/04/21 08:11:42;;;;;;;4.80;1.80;;;15.10;1.00;;;;;;10415755;28;84275;-53
2022/04/21 08:16:43;;;;;;;3.38;2.00;;;15.40;1.00;;;;;;10414977;28;98765;-55
2022/04/21 08:21:44;;;;;;;4.07;1.73;;;15.50;1.00;;;;;;10416252;28;84290;-54
2022/04/21 08:37:23;;;;;;;4.40;1.90;;;14.40;99.90;;;;;;10430212;22;84212;-65
2022/04/21 08:42:26;;;;;;;3.28;1.80;;;14.60;99.90;;;;;;10397203;28;87281;-65
2022/04/21 08:47:31;;;;;;;2.20;1.77;;;14.70;99.90;;;;;;10385228;28;84849;-64
2022/04/21 08:52:34;;;;;;;1.40;1.30;;;15.40;1.00;;;;;;10355697;28;87006;-64
2022/04/21 08:57:37;;;;;;;2.20;1.30;;;15.80;1.00;;;;;;10373188;28;84104;-65
2022/04/21 09:02:45;;;;;;;2.05;1.30;;;15.40;99.90;;;;;;10381821;28;85110;-64
2022/04/21 09:07:50;;;;;;;3.13;1.02;;;15.30;99.90;;;;;;10382929;28;86786;-65
2022/04/21 09:12:59;;;;;;;2.50;1.25;;;15.30;84.00;;;;;;10375229;28;85024;-64
2022/04/21 09:18:02;;;;;;;2.10;0.80;;;15.10;26.60;;;;;;10373543;28;84908;-64
2022/04/21 09:23:11;;;;;;;1.08;0.88;;;14.90;1.00;;;;;;10372887;28;84112;-65
2022/04/21 09:28:26;;;;;;;3.70;1.95;;;14.80;1.00;;;;;;10371457;28;84702;-65
2022/04/21 09:33:29;;;;;;;2.53;1.02;;;14.70;1.00;;;;;;10373001;28;84109;-65
2022/04/21 09:38:30;;;;;;;1.58;0.98;;;14.60;1.00;;;;;;10372802;28;84013;-64
2022/04/21 09:43:37;;;;;;;1.83;1.10;;;14.70;39.10;;;;;;10371902;28;84969;-64
2022/04/21 09:48:38;;;;;;;2.00;1.23;;;14.50;1.00;;;;;;10370892;28;84047;-64
2022/04/21 09:53:59;;;;;;;2.03;1.08;;;14.40;1.00;;;;;;10371298;28;85000;-64
2022/04/21 09:59:05;;;;;;;2.53;1.20;;;14.40;1.00;;;;;;10370560;28;84316;-64
2022/04/21 10:04:07;;;;;;;2.85;1.05;;;15.30;1.00;;;;;;10370606;28;85066;-65
2022/04/21 10:09:09;;;;;;;2.33;0.95;;;16.30;1.00;;;;;;10369884;28;85198;-64
2022/04/21 10:14:15;;;;;;;2.78;1.30;;;16.40;1.00;;;;;;10370554;28;84847;-65
2022/04/21 10:19:19;;;;;;;2.42;1.45;;;16.40;1.00;;;;;;10370442;28;84908;-65
2022/04/21 10:24:24;;;;;;;1.75;1.30;;;17.20;1.00;;;;;;10370142;28;85116;-65
2022/04/21 10:29:50;;;;;;;2.75;1.60;;;19.00;1.00;;;;;;10487508;27;82879;-63
2022/04/21 10:34:56;;;;;;;2.63;1.67;;;19.30;1.00;;;;;;10469750;27;82984;-64
2022/04/21 10:40:07;;;;;;;3.45;1.70;;;18.80;1.00;;;;;;10490971;22;83096;-54
2022/04/21 10:45:14;;;;;;;4.00;1.73;;;19.20;1.00;;;;;;10404390;28;82981;-54
2022/04/21 10:50:19;;;;;;;3.13;1.90;;;18.60;99.90;;;;;;10403651;28;82998;-56
2022/04/21 11:00:40;;;;;;;2.78;1.85;;;17.90;1.00;;;;;;10403646;28;82820;-55
2022/04/21 11:05:41;;;;;;;2.45;2.03;;;18.90;1.00;;;;;;10403871;28;83026;-55
2022/04/21 11:10:43;;;;;;;3.03;1.90;;;19.60;1.00;;;;;;10404355;28;90321;-54
2022/04/21 11:15:44;;;;;;;4.72;2.10;;;19.50;99.90;;;;;;10402998;28;82940;-57
2022/04/21 11:20:50;;;;;;;5.30;2.28;;;18.80;99.90;;;;;;10403190;28;83309;-58
2022/04/21 11:25:52;;;;;;;3.38;2.03;;;19.40;1.00;;;;;;10383707;28;84744;-55
2022/04/21 11:30:57;;;;;;;5.45;2.35;;;20.90;99.90;;;;;;10402850;28;82873;-58
2022/04/21 11:36:12;;;;;;;6.30;2.40;;;21.30;99.90;;;;;;10383875;28;83001;-55
2022/04/21 11:41:15;;;;;;;3.10;2.25;;;20.70;99.90;;;;;;10374435;28;83203;-56
2022/04/21 11:46:19;;;;;;;4.68;2.50;;;21.20;99.90;;;;;;10373998;28;82904;-55
2022/04/21 11:51:26;;;;;;;3.30;2.40;;;21.90;99.90;;;;;;10374486;28;83315;-54
2022/04/21 11:56:27;;;;;;;2.80;2.15;;;21.90;99.90;;;;;;10373249;28;82947;-59
2022/04/21 12:06:53;;;;;;;4.13;2.25;;;21.80;99.90;;;;;;10373305;28;83112;-56
2022/04/21 12:11:56;;;;;;;4.55;2.83;;;22.40;99.90;;;;;;10374014;28;83259;-58
2022/04/21 12:16:58;;;;;;;3.15;2.30;;;22.10;99.90;;;;;;10373112;28;82938;-56
2022/04/21 12:22:00;;;;;;;5.65;2.95;;;23.40;99.90;;;;;;10373531;28;83299;-55
2022/04/21 12:27:04;;;;;;;3.50;2.75;;;23.00;99.90;;;;;;10373003;28;83337;-57
2022/04/21 12:32:05;;;;;;;5.90;3.10;;;22.90;70.80;;;;;;10373246;28;83690;-55
2022/04/21 12:37:06;;;;;;;6.53;2.83;;;22.90;61.60;;;;;;10373054;28;83308;-51
2022/04/21 12:42:07;;;;;;;3.25;2.53;;;21.70;34.00;;;;;;10372838;28;83313;-52
2022/04/21 12:47:18;;;;;;;3.60;2.85;;;21.70;78.60;;;;;;10371988;28;83406;-55
2022/04/21 12:52:39;;;;;;;4.97;3.03;;;22.00;99.90;;;;;;10371835;28;83670;-52
2022/04/21 12:57:40;;;;;;;2.90;2.42;;;21.80;86.50;;;;;;10354542;28;82908;-57
2022/04/21 13:02:41;;;;;;;4.60;2.70;;;22.00;60.70;;;;;;10372927;28;82847;-55
2022/04/21 13:07:41;;;;;;;3.45;2.92;;;21.90;99.90;;;;;;10353640;28;82869;-54
2022/04/21 13:12:42;;;;;;;5.03;3.08;;;20.90;96.30;;;;;;10372853;28;83438;-53
2022/04/21 13:17:43;;;;;;;4.72;3.10;;;20.30;99.90;;;;;;10372277;28;82949;-53
2022/04/21 13:22:44;;;;;;;5.20;3.15;;;20.30;99.90;;;;;;10354722;28;84764;-55
2022/04/21 13:27:44;;;;;;;4.68;3.13;;;20.10;99.90;;;;;;10371673;28;83370;-55
2022/04/21 13:38:04;;;;;;;4.90;3.28;;;20.80;99.90;;;;;;10371229;28;82790;-57
2022/04/21 13:43:05;;;;;;;4.88;3.17;;;21.00;99.90;;;;;;10371279;28;83316;-53
2022/04/21 13:48:09;;;;;;;4.93;3.28;;;20.50;99.90;;;;;;10335874;28;85246;-53
2022/04/21 13:53:10;;;;;;;5.47;3.10;;;20.70;99.90;;;;;;10371231;28;82951;-56
2022/04/21 13:58:12;;;;;;;3.67;3.20;;;21.50;99.90;;;;;;10370778;28;83173;-58
2022/04/21 14:03:13;;;;;;;4.30;3.10;;;22.00;99.90;;;;;;10370761;28;82898;-56
2022/04/21 14:08:14;;;;;;;4.45;3.10;;;21.60;99.90;;;;;;10352595;28;83215;-53
2022/04/21 14:13:16;;;;;;;4.80;3.42;;;21.40;99.90;;;;;;10370683;28;83088;-53
2022/04/21 14:18:17;;;;;;;5.78;3.05;;;21.50;91.00;;;;;;10369979;28;82943;-56
2022/04/21 14:23:19;;;;;;;4.00;2.90;;;21.90;98.00;;;;;;10370435;28;83172;-59
2022/04/21 14:28:19;;;;;;;5.10;3.03;;;22.00;59.20;;;;;;10370160;28;83783;-53
2022/04/21 14:33:21;;;;;;;6.30;3.55;;;20.60;55.70;;;;;;10351742;28;83315;-54
2022/04/21 14:49:01;;;;;;;4.15;2.63;;;19.10;99.90;;;;;;10369211;28;83721;-52
2022/04/21 14:54:03;;;;;;;4.70;3.00;;;18.90;99.90;;;;;;10372979;28;83310;-51
2022/04/21 14:59:05;;;;;;;5.25;2.92;;;18.80;99.90;;;;;;10381901;28;83456;-53
2022/04/21 15:04:07;;;;;;;3.83;2.63;;;18.50;99.90;;;;;;10388077;28;83280;-55
2022/04/21 15:09:07;;;;;;;3.92;2.90;;;18.30;1.00;;;;;;10385211;28;82945;-55
2022/04/21 15:14:08;;;;;;;4.50;2.78;;;18.40;1.00;;;;;;10391609;28;83365;-52
2022/04/21 15:19:09;;;;;;;3.50;2.28;;;18.40;1.00;;;;;;10391208;28;83149;-57
2022/04/21 15:24:10;;;;;;;3.67;2.42;;;18.10;1.00;;;;;;10374006;28;84390;-55
2022/04/21 15:29:11;;;;;;;4.70;3.00;;;18.20;1.00;;;;;;10391825;28;83045;-57
2022/04/21 15:34:12;;;;;;;4.53;2.55;;;18.20;1.00;;;;;;10371346;28;83701;-53
2022/04/21 15:39:13;;;;;;;4.38;2.97;;;17.80;1.00;;;;;;10371604;28;83067;-56
2022/04/21 15:44:13;;;;;;;4.15;2.75;;;17.40;1.00;;;;;;10373320;28;84093;-57
2022/04/21 15:49:14;;;;;;;4.63;2.58;;;17.00;99.90;;;;;;10356206;28;83402;-55
2022/04/21 15:59:33;;;;;;;5.03;2.60;;;17.00;1.00;;;;;;10364092;28;83375;-54
2022/04/21 16:04:34;;;;;;;3.67;2.13;;;16.80;1.00;;;;;;10367062;28;83209;-49
2022/04/21 16:09:35;;;;;;;2.97;2.10;;;16.60;1.00;;;;;;10353052;28;85545;-54
2022/04/21 16:14:38;;;;;;;2.70;1.90;;;16.50;1.00;;;;;;10373506;28;83150;-56
2022/04/21 16:19:38;;;;;;;3.55;2.38;;;16.40;1.00;;;;;;10372893;28;83339;-53
2022/04/21 16:24:40;;;;;;;3.22;2.08;;;16.50;15.20;;;;;;10370026;28;83583;-54
2022/04/21 16:29:41;;;;;;;4.00;2.25;;;16.40;99.90;;;;;;10375228;28;83454;-53
2022/04/21 16:34:42;;;;;;;4.30;2.53;;;16.40;99.90;;;;;;10354449;28;83572;-49
2022/04/21 16:39:43;;;;;;;6.75;2.30;;;16.40;1.00;;;;;;10369473;22;84270;-50
2022/04/21 16:44:44;;;;;;;3.15;2.10;;;16.50;1.00;;;;;;10306156;28;83792;-49
2022/04/21 16:49:45;;;;;;;2.95;2.15;;;16.30;99.90;;;;;;10325140;28;83722;-48
2022/04/21 16:54:46;;;;;;;2.17;1.67;;;16.20;31.50;;;;;;10314885;28;83934;-50
2022/04/21 16:59:46;;;;;;;3.50;1.95;;;16.20;1.00;;;;;;10324380;28;83775;-49
2022/04/21 17:04:47;;;;;;;3.58;2.00;;;15.80;1.00;;;;;;10326892;28;89221;-47
2022/04/21 17:09:48;;;;;;;3.58;2.00;;;15.80;1.00;;;;;;10307254;28;84039;-48
2022/04/21 17:14:48;;;;;;;5.40;2.17;;;15.80;1.00;;;;;;10326886;28;83900;-46
2022/04/21 17:19:49;;;;;;;3.40;1.95;;;15.60;99.90;;;;;;10325788;28;83901;-48
2022/04/21 17:24:50;;;;;;;3.45;2.40;;;15.60;99.90;;;;;;10321767;28;84454;-48
2022/04/21 17:29:51;;;;;;;4.82;2.20;;;15.50;1.00;;;;;;10321160;28;84040;-48
2022/04/21 17:34:51;;;;;;;3.28;2.10;;;15.30;1.00;;;;;;10325400;28;83687;-48
2022/04/21 17:39:52;;;;;;;5.10;2.38;;;15.30;99.90;;;;;;10322859;28;83842;-51
2022/04/21 17:44:53;;;;;;;4.13;2.40;;;15.20;1.00;;;;;;10328101;28;83668;-46
2022/04/21 17:49:53;;;;;;;4.50;2.25;;;15.30;99.90;;;;;;10324544;28;83854;-47
2022/04/21 17:54:54;;;;;;;5.15;3.20;;;15.10;1.00;;;;;;10322516;28;84180;-49
2022/04/21 17:59:55;;;;;;;6.40;3.03;;;15.00;99.90;;;;;;10306218;28;83928;-47
2022/04/21 18:04:56;;;;;;;5.40;2.75;;;15.00;99.90;;;;;;10328362;28;83870;-49
2022/04/21 18:09:56;;;;;;;4.70;1.98;;;14.80;1.00;;;;;;10309071;28;84714;-48
2022/04/21 18:14:57;;;;;;;3.65;1.90;;;14.60;99.90;;;;;;10328363;28;83849;-48
2022/04/21 18:19:58;;;;;;;3.00;1.70;;;14.50;1.00;;;;;;10309063;28;85759;-52
2022/04/21 18:24:59;;;;;;;3.67;1.80;;;14.30;99.90;;;;;;10328471;28;82905;-48
2022/04/21 18:30:00;;;;;;;3.28;1.67;;;14.30;1.00;;;;;;10308097;28;84328;-50
2022/04/21 18:35:02;;;;;;;3.53;1.73;;;14.10;99.90;;;;;;10327287;28;83750;-51
2022/04/21 18:40:04;;;;;;;3.30;1.98;;;14.10;99.90;;;;;;10321161;28;82876;-48
2022/04/21 18:45:05;;;;;;;5.55;2.17;;;14.00;99.90;;;;;;10297465;28;84274;-47
2022/04/21 18:50:06;;;;;;;4.10;1.95;;;13.90;1.00;;;;;;10330440;28;83901;-47
2022/04/21 18:55:07;;;;;;;3.70;2.33;;;13.80;1.00;;;;;;10327881;28;84433;-46
2022/04/21 19:00:08;;;;;;;3.50;1.67;;;13.60;1.00;;;;;;10333331;28;83931;-48
2022/04/21 19:05:09;;;;;;;3.03;2.20;;;13.40;99.90;;;;;;10312486;28;83986;-49
2022/04/21 19:10:11;;;;;;;4.30;2.38;;;13.40;1.00;;;;;;10302525;28;84059;-46
2022/04/21 19:15:12;;;;;;;4.38;2.30;;;13.30;1.00;;;;;;10294911;28;83887;-48
2022/04/21 19:20:14;;;;;;;5.45;2.30;;;13.20;1.00;;;;;;10298334;28;83957;-48
2022/04/21 19:25:15;;;;;;;3.75;2.45;;;13.10;1.00;;;;;;10297706;28;83852;-45
2022/04/21 19:30:17;;;;;;;4.60;2.47;;;13.00;1.00;;;;;;10315348;28;84304;-46
2022/04/21 19:35:17;;;;;;;5.18;3.13;;;13.00;1.00;;;;;;10313609;28;83860;-48
2022/04/21 19:40:19;;;;;;;5.25;2.67;;;12.90;1.00;;;;;;10330300;28;84368;-48
2022/04/21 19:45:20;;;;;;;4.45;2.42;;;12.90;1.00;;;;;;10315355;28;84178;-49
2022/04/21 19:50:23;;;;;;;4.43;2.53;;;12.80;1.00;;;;;;10330913;28;84321;-49
2022/04/21 19:55:24;;;;;;;4.28;2.72;;;12.80;1.00;;;;;;10331047;28;84205;-44
2022/04/21 20:00:25;;;;;;;4.82;2.75;;;12.70;1.00;;;;;;10313329;28;84342;-47
2022/04/21 20:10:45;;;;;;;4.72;2.75;;;12.60;99.90;;;;;;10313566;28;85588;-48
2022/04/21 20:15:46;;;;;;;3.33;2.40;;;12.50;99.90;;;;;;10329055;28;83827;-47
2022/04/21 20:26:37;;;;;;;4.00;2.22;;;12.30;99.90;;;;;;10280038;28;84122;-47
2022/04/21 20:31:40;;;;;;;4.50;2.70;;;12.30;99.90;;;;;;10332685;28;84665;-46
2022/04/21 20:36:41;;;;;;;6.13;3.00;;;12.30;99.90;;;;;;10331033;28;83849;-46
2022/04/21 20:41:41;;;;;;;5.20;2.90;;;12.30;99.90;;;;;;10330254;28;84371;-47
2022/04/21 20:46:42;;;;;;;5.13;3.00;;;12.30;99.90;;;;;;10329020;28;83624;-48
2022/04/21 20:51:43;;;;;;;5.13;2.90;;;12.20;99.90;;;;;;10312097;28;83787;-47
2022/04/21 20:56:44;;;;;;;5.50;2.88;;;12.20;99.90;;;;;;10330497;28;84258;-48
2022/04/21 21:01:45;;;;;;;4.40;2.67;;;12.20;1.00;;;;;;10313902;28;84103;-47
2022/04/21 21:12:06;;;;;;;5.80;3.15;;;12.10;1.00;;;;;;10305679;28;86269;-47
2022/04/21 21:17:07;;;;;;;5.22;3.05;;;12.00;1.00;;;;;;10328860;28;84335;-52
2022/04/21 21:22:08;;;;;;;8.68;3.72;;;11.90;1.00;;;;;;10312244;28;84259;-50
2022/04/21 21:27:09;;;;;;;4.97;3.25;;;12.00;1.00;;;;;;10327630;28;83907;-49
2022/04/21 21:32:10;;;;;;;6.88;3.33;;;11.90;1.00;;;;;;10329124;28;83867;-49
2022/04/21 21:37:11;;;;;;;5.22;3.83;;;11.80;1.00;;;;;;10294097;28;85969;-48
2022/04/21 21:42:12;;;;;;;5.32;3.42;;;11.80;1.00;;;;;;10327709;28;84146;-48
2022/04/21 21:47:12;;;;;;;6.63;3.80;;;11.80;1.00;;;;;;10327642;28;83820;-49
2022/04/21 21:57:33;;;;;;;5.47;3.47;;;11.80;1.00;;;;;;10328347;28;83928;-47
2022/04/21 22:02:33;;;;;;;6.25;3.63;;;11.60;1.00;;;;;;10306130;28;83712;-47
2022/04/21 22:07:34;;;;;;;8.43;4.20;;;11.60;1.00;;;;;;10326090;28;83941;-49
2022/04/21 22:12:35;;;;;;;6.72;3.92;;;11.50;1.00;;;;;;10326628;28;84097;-48
2022/04/21 22:17:35;;;;;;;8.43;4.40;;;11.50;1.00;;;;;;10308431;28;83984;-47
2022/04/21 22:22:37;;;;;;;6.90;3.58;;;11.50;1.00;;;;;;10291440;28;83957;-48
2022/04/21 22:27:37;;;;;;;5.85;3.80;;;11.50;1.00;;;;;;10325292;28;84048;-49
2022/04/21 22:32:46;;;;;;;9.40;3.85;;;11.50;1.00;;;;;;10325711;28;84664;-48
2022/04/21 22:37:47;;;;;;;6.50;4.25;;;11.50;1.00;;;;;;10325232;28;83736;-51
2022/04/21 22:42:48;;;;;;;10.73;4.60;;;11.60;1.00;;;;;;10370105;22;83996;-57
2022/04/21 22:47:50;;;;;;;8.52;4.45;;;11.60;1.00;;;;;;10365742;28;84415;-53
2022/04/21 22:52:50;;;;;;;7.38;4.18;;;11.60;1.00;;;;;;10324228;28;85202;-52
2022/04/21 22:57:51;;;;;;;5.82;3.92;;;11.60;1.00;;;;;;10319555;28;83437;-55
2022/04/21 23:02:52;;;;;;;11.02;4.25;;;11.50;1.00;;;;;;10325459;28;83906;-54
2022/04/21 23:07:52;;;;;;;5.82;3.67;;;11.50;1.00;;;;;;10325187;28;84104;-54
2022/04/21 23:18:12;;;;;;;6.35;4.20;;;11.50;1.00;;;;;;10325234;28;83950;-53
2022/04/21 23:23:14;;;;;;;6.38;4.50;;;11.40;1.00;;;;;;10326256;28;83492;-54
2022/04/21 23:28:14;;;;;;;7.05;4.13;;;11.50;1.00;;;;;;10307383;28;84143;-54
2022/04/21 23:33:15;;;;;;;7.40;4.13;;;11.40;1.00;;;;;;10326791;28;83225;-55
2022/04/21 23:38:28;;;;;;;6.53;4.40;;;11.30;1.00;;;;;;10332357;28;84314;-57
2022/04/21 23:43:29;;;;;;;10.82;4.90;;;11.40;1.00;;;;;;10332298;28;83285;-53
2022/04/21 23:48:30;;;;;;;7.90;4.95;;;11.60;1.00;;;;;;10313674;28;83652;-55
2022/04/21 23:53:31;;;;;;;10.85;5.03;;;11.70;1.00;;;;;;10331940;28;84093;-59
2022/04/21 23:58:31;;;;;;;6.50;4.50;;;11.70;1.00;;;;;;10331294;28;84138;-59
